createdAt,value
2018-09-24T00:00:20.645Z,10.75
2018-09-24T00:01:20.556Z,10.72
2018-09-24T00:02:20.534Z,10.76
2018-09-24T00:03:20.525Z,10.76
2018-09-24T00:04:20.497Z,10.75
2018-09-24T00:05:20.480Z,10.75
2018-09-24T00:06:20.459Z,10.70
2018-09-24T00:07:20.440Z,10.75
2018-09-24T00:08:20.432Z,10.75
2018-09-24T00:09:20.407Z,10.75
2018-09-24T00:10:20.386Z,10.73
2018-09-24T00:11:20.366Z,10.75
2018-09-24T00:12:20.347Z,10.73
2018-09-24T00:13:20.336Z,10.70
2018-09-24T00:14:20.310Z,10.68
2018-09-24T00:15:20.293Z,10.65
2018-09-24T00:16:20.276Z,10.72
2018-09-24T00:17:20.257Z,10.70
2018-09-24T00:18:20.249Z,10.72
2018-09-24T00:19:20.215Z,10.78
2018-09-24T00:20:20.207Z,10.73
2018-09-24T00:21:20.179Z,10.75
2018-09-24T00:22:20.158Z,10.75
2018-09-24T00:23:20.152Z,10.68
2018-09-24T00:24:20.121Z,10.62
2018-09-24T00:25:20.103Z,10.72
2018-09-24T00:26:20.089Z,10.68
2018-09-24T00:27:20.067Z,10.65
2018-09-24T00:28:20.047Z,10.64
2018-09-24T00:29:20.028Z,10.55
2018-09-24T00:30:20.010Z,10.54
2018-09-24T00:31:19.991Z,10.60
2018-09-24T00:32:19.971Z,10.49
2018-09-24T00:33:19.956Z,10.57
2018-09-24T00:34:19.935Z,10.57
2018-09-24T00:35:19.928Z,10.61
2018-09-24T00:36:19.898Z,10.52
2018-09-24T00:37:19.877Z,10.55
2018-09-24T00:38:19.860Z,10.60
2018-09-24T00:39:19.844Z,10.68
2018-09-24T00:40:19.822Z,10.58
2018-09-24T00:41:19.803Z,10.64
2018-09-24T00:42:19.784Z,10.58
2018-09-24T00:43:19.768Z,10.60
2018-09-24T00:44:19.751Z,10.58
2018-09-24T00:45:19.737Z,10.55
2018-09-24T00:46:19.708Z,10.54
2018-09-24T00:47:19.693Z,10.55
2018-09-24T00:48:19.671Z,10.54
2018-09-24T00:49:19.652Z,10.55
2018-09-24T00:50:19.634Z,10.52
2018-09-24T00:51:19.615Z,10.52
2018-09-24T00:52:19.596Z,10.61
2018-09-24T00:53:19.587Z,10.64
2018-09-24T00:54:19.560Z,10.55
2018-09-24T00:55:19.540Z,10.52
2018-09-24T00:56:19.522Z,10.54
2018-09-24T00:57:19.503Z,10.55
2018-09-24T00:58:19.483Z,10.57
2018-09-24T00:59:19.466Z,10.46
2018-09-24T01:00:19.452Z,10.46
2018-09-24T01:01:19.431Z,10.54
2018-09-24T01:02:19.411Z,10.61
2018-09-24T01:03:19.389Z,10.45
2018-09-24T01:04:19.372Z,10.52
2018-09-24T01:05:19.354Z,10.45
2018-09-24T01:06:19.332Z,10.57
2018-09-24T01:07:19.313Z,10.48
2018-09-24T01:08:19.301Z,10.43
2018-09-24T01:09:19.276Z,10.41
2018-09-24T01:10:19.264Z,10.54
2018-09-24T01:11:19.240Z,10.45
2018-09-24T01:12:19.220Z,10.48
2018-09-24T01:13:19.200Z,10.42
2018-09-24T01:14:19.181Z,10.55
2018-09-24T01:15:19.165Z,10.48
2018-09-24T01:16:19.144Z,10.55
2018-09-24T01:17:19.144Z,10.35
2018-09-24T01:18:19.111Z,10.46
2018-09-24T01:19:19.090Z,10.35
2018-09-24T01:20:19.073Z,10.45
2018-09-24T01:21:19.052Z,10.42
2018-09-24T01:22:19.031Z,10.41
2018-09-24T01:23:19.014Z,10.39
2018-09-24T01:24:18.992Z,10.38
2018-09-24T01:25:18.975Z,10.39
2018-09-24T01:26:18.958Z,10.41
2018-09-24T01:27:18.936Z,10.41
2018-09-24T01:28:18.918Z,10.41
2018-09-24T01:29:18.899Z,10.35
2018-09-24T01:30:18.881Z,10.34
2018-09-24T01:31:18.860Z,10.38
2018-09-24T01:32:18.842Z,10.35
2018-09-24T01:33:18.822Z,10.26
2018-09-24T01:34:18.804Z,10.39
2018-09-24T01:35:18.791Z,10.39
2018-09-24T01:36:18.766Z,10.38
2018-09-24T01:37:18.751Z,10.38
2018-09-24T01:38:18.728Z,10.39
2018-09-24T01:39:18.711Z,10.30
2018-09-24T01:40:18.692Z,10.36
2018-09-24T01:41:18.677Z,10.28
2018-09-24T01:42:18.655Z,10.36
2018-09-24T01:43:18.640Z,10.31
2018-09-24T01:44:18.615Z,10.41
2018-09-24T01:45:18.598Z,10.31
2018-09-24T01:46:18.580Z,10.35
2018-09-24T01:47:18.560Z,10.38
2018-09-24T01:48:18.540Z,10.39
2018-09-24T01:49:18.521Z,10.39
2018-09-24T01:50:18.505Z,10.36
2018-09-24T01:51:18.485Z,10.36
2018-09-24T01:52:18.469Z,10.39
2018-09-24T01:53:18.454Z,10.39
2018-09-24T01:54:18.428Z,10.35
2018-09-24T01:55:18.412Z,10.38
2018-09-24T01:56:18.393Z,10.34
2018-09-24T01:57:18.374Z,10.27
2018-09-24T01:58:18.352Z,10.30
2018-09-24T01:59:18.337Z,10.21
2018-09-24T02:00:18.316Z,10.21
2018-09-24T02:01:18.296Z,10.26
2018-09-24T02:02:18.278Z,10.21
2018-09-24T02:03:18.258Z,10.20
2018-09-24T02:04:18.239Z,10.23
2018-09-24T02:05:18.222Z,10.21
2018-09-24T02:06:18.203Z,10.17
2018-09-24T02:07:18.182Z,10.20
2018-09-24T02:08:18.162Z,10.24
2018-09-24T02:09:18.142Z,10.21
2018-09-24T02:10:18.128Z,10.18
2018-09-24T02:11:18.103Z,10.18
2018-09-24T02:12:18.083Z,10.10
2018-09-24T02:13:18.069Z,10.14
2018-09-24T02:14:18.046Z,10.09
2018-09-24T02:15:18.031Z,10.09
2018-09-24T02:16:18.005Z,10.08
2018-09-24T02:17:17.991Z,10.10
2018-09-24T02:18:17.968Z,10.12
2018-09-24T02:19:17.951Z,10.09
2018-09-24T02:20:17.935Z,10.08
2018-09-24T02:21:17.912Z,10.09
2018-09-24T02:22:17.892Z,10.12
2018-09-24T02:23:17.875Z,10.12
2018-09-24T02:24:17.856Z,10.06
2018-09-24T02:25:17.839Z,10.09
2018-09-24T02:26:17.817Z,10.14
2018-09-24T02:27:17.806Z,10.09
2018-09-24T02:28:17.779Z,10.03
2018-09-24T02:29:17.760Z,10.03
2018-09-24T02:30:17.740Z,10.02
2018-09-24T02:31:17.724Z,10.10
2018-09-24T02:32:17.702Z,10.02
2018-09-24T02:33:17.689Z,10.02
2018-09-24T02:34:17.662Z,10.01
2018-09-24T02:35:17.643Z,9.96
2018-09-24T02:36:17.624Z,9.99
2018-09-24T02:37:17.609Z,10.05
2018-09-24T02:38:17.586Z,10.05
2018-09-24T02:39:17.568Z,10.12
2018-09-24T02:40:17.550Z,10.08
2018-09-24T02:41:17.528Z,9.99
2018-09-24T02:42:17.508Z,10.02
2018-09-24T02:43:17.491Z,9.99
2018-09-24T02:44:17.472Z,10.06
2018-09-24T02:45:17.460Z,10.06
2018-09-24T02:46:17.438Z,10.10
2018-09-24T02:47:17.412Z,10.09
2018-09-24T02:48:17.393Z,10.09
2018-09-24T02:49:17.374Z,10.09
2018-09-24T02:50:17.360Z,10.16
2018-09-24T02:51:17.339Z,10.12
2018-09-24T02:52:17.318Z,10.12
2018-09-24T02:53:17.300Z,10.03
2018-09-24T02:54:17.283Z,10.03
2018-09-24T02:55:17.262Z,9.91
2018-09-24T02:56:17.241Z,9.99
2018-09-24T02:57:17.222Z,10.08
2018-09-24T02:58:17.203Z,9.98
2018-09-24T02:59:17.185Z,10.08
2018-09-24T03:00:17.165Z,10.06
2018-09-24T03:01:17.174Z,10.02
2018-09-24T03:02:17.124Z,9.98
2018-09-24T03:03:17.109Z,9.98
2018-09-24T03:04:17.091Z,9.90
2018-09-24T03:05:17.074Z,9.88
2018-09-24T03:06:17.052Z,9.98
2018-09-24T03:07:17.033Z,9.98
2018-09-24T03:08:17.015Z,9.98
2018-09-24T03:09:16.994Z,10.01
2018-09-24T03:10:16.991Z,9.91
2018-09-24T03:11:16.959Z,9.98
2018-09-24T03:12:16.938Z,9.93
2018-09-24T03:13:16.914Z,9.88
2018-09-24T03:14:16.895Z,9.98
2018-09-24T03:15:16.881Z,9.96
2018-09-24T03:16:16.860Z,9.91
2018-09-24T03:17:16.839Z,9.90
2018-09-24T03:18:16.821Z,9.94
2018-09-24T03:19:16.801Z,9.87
2018-09-24T03:20:16.788Z,9.85
2018-09-24T03:21:16.761Z,9.69
2018-09-24T03:22:16.743Z,9.75
2018-09-24T03:23:16.723Z,9.77
2018-09-24T03:24:16.708Z,9.75
2018-09-24T03:25:16.692Z,9.75
2018-09-24T03:26:16.693Z,9.78
2018-09-24T03:27:16.646Z,9.62
2018-09-24T03:28:16.628Z,9.72
2018-09-24T03:29:16.614Z,9.62
2018-09-24T03:30:16.591Z,9.57
2018-09-24T03:31:16.573Z,9.65
2018-09-24T03:32:16.552Z,9.65
2018-09-24T03:33:16.532Z,9.63
2018-09-24T03:34:16.513Z,9.59
2018-09-24T03:35:16.494Z,9.60
2018-09-24T03:36:16.478Z,9.55
2018-09-24T03:37:16.460Z,9.66
2018-09-24T03:38:16.435Z,9.63
2018-09-24T03:39:16.418Z,9.59
2018-09-24T03:40:16.398Z,9.63
2018-09-24T03:41:16.379Z,9.59
2018-09-24T03:42:16.360Z,9.63
2018-09-24T03:43:16.340Z,9.54
2018-09-24T03:44:16.323Z,9.62
2018-09-24T03:45:16.301Z,9.59
2018-09-24T03:46:16.290Z,9.57
2018-09-24T03:47:16.265Z,9.59
2018-09-24T03:48:16.247Z,9.52
2018-09-24T03:49:16.224Z,9.52
2018-09-24T03:50:16.205Z,9.55
2018-09-24T03:51:16.187Z,9.60
2018-09-24T03:52:16.165Z,9.55
2018-09-24T03:53:16.149Z,9.51
2018-09-24T03:54:16.131Z,9.51
2018-09-24T03:55:16.109Z,9.55
2018-09-24T03:56:16.089Z,9.52
2018-09-24T03:57:16.073Z,9.51
2018-09-24T03:58:16.054Z,9.59
2018-09-24T03:59:16.038Z,9.59
2018-09-24T04:00:16.015Z,9.51
2018-09-24T04:01:15.993Z,9.55
2018-09-24T04:02:15.983Z,9.52
2018-09-24T04:03:15.956Z,9.55
2018-09-24T04:04:15.938Z,9.55
2018-09-24T04:05:15.932Z,9.54
2018-09-24T04:06:15.897Z,9.44
2018-09-24T04:07:15.881Z,9.52
2018-09-24T04:08:15.860Z,9.47
2018-09-24T04:09:15.856Z,9.40
2018-09-24T04:10:15.872Z,9.42
2018-09-24T04:11:15.805Z,9.45
2018-09-24T04:12:15.785Z,9.34
2018-09-24T04:13:15.765Z,9.36
2018-09-24T04:14:15.744Z,9.30
2018-09-24T04:15:15.722Z,9.33
2018-09-24T04:16:15.703Z,9.51
2018-09-24T04:17:15.684Z,9.54
2018-09-24T04:18:15.668Z,9.41
2018-09-24T04:19:15.645Z,9.40
2018-09-24T04:20:15.629Z,9.42
2018-09-24T04:21:15.608Z,9.41
2018-09-24T04:22:15.589Z,9.40
2018-09-24T04:23:15.572Z,9.44
2018-09-24T04:24:15.554Z,9.45
2018-09-24T04:25:15.531Z,9.42
2018-09-24T04:26:15.649Z,9.45
2018-09-24T04:27:15.493Z,9.51
2018-09-24T04:28:15.473Z,9.44
2018-09-24T04:29:15.452Z,9.41
2018-09-24T04:30:15.436Z,9.37
2018-09-24T04:31:15.420Z,9.30
2018-09-24T04:32:15.395Z,9.26
2018-09-24T04:33:15.375Z,9.36
2018-09-24T04:34:15.358Z,9.27
2018-09-24T04:35:15.337Z,9.37
2018-09-24T04:36:15.316Z,9.37
2018-09-24T04:37:15.297Z,9.41
2018-09-24T04:38:15.282Z,9.27
2018-09-24T04:39:15.271Z,9.40
2018-09-24T04:40:15.243Z,9.22
2018-09-24T04:41:15.227Z,9.32
2018-09-24T04:42:15.204Z,9.34
2018-09-24T04:43:15.181Z,9.29
2018-09-24T04:44:15.162Z,9.40
2018-09-24T04:45:15.142Z,9.30
2018-09-24T04:46:15.129Z,9.27
2018-09-24T04:47:15.116Z,9.36
2018-09-24T04:48:15.088Z,9.27
2018-09-24T04:49:15.112Z,9.36
2018-09-24T04:50:15.049Z,9.26
2018-09-24T04:51:15.027Z,9.32
2018-09-24T04:52:15.007Z,9.37
2018-09-24T04:53:14.988Z,9.36
2018-09-24T04:54:14.968Z,9.33
2018-09-24T04:55:14.958Z,9.30
2018-09-24T04:56:14.938Z,9.37
2018-09-24T04:57:14.912Z,9.40
2018-09-24T04:58:14.895Z,9.29
2018-09-24T04:59:14.873Z,9.30
2018-09-24T05:00:14.854Z,9.27
2018-09-24T05:01:14.832Z,9.27
2018-09-24T05:02:14.821Z,9.26
2018-09-24T05:03:14.799Z,9.23
2018-09-24T05:04:14.772Z,9.18
2018-09-24T05:05:14.757Z,9.27
2018-09-24T05:06:14.738Z,9.19
2018-09-24T05:07:14.720Z,9.33
2018-09-24T05:08:14.695Z,9.30
2018-09-24T05:09:14.681Z,9.26
2018-09-24T05:10:14.711Z,9.29
2018-09-24T05:11:14.646Z,9.24
2018-09-24T05:12:14.620Z,9.33
2018-09-24T05:13:14.599Z,9.33
2018-09-24T05:14:14.580Z,9.30
2018-09-24T05:15:14.570Z,9.30
2018-09-24T05:16:14.645Z,9.29
2018-09-24T05:17:14.524Z,9.29
2018-09-24T05:18:14.504Z,9.37
2018-09-24T05:19:14.483Z,9.26
2018-09-24T05:20:14.578Z,9.36
2018-09-24T05:21:14.446Z,9.26
2018-09-24T05:22:14.425Z,9.27
2018-09-24T05:23:14.416Z,9.24
2018-09-24T05:24:14.397Z,9.36
2018-09-24T05:25:14.373Z,9.29
2018-09-24T05:26:14.355Z,9.30
2018-09-24T05:27:14.334Z,9.29
2018-09-24T05:28:14.307Z,9.23
2018-09-24T05:29:14.290Z,9.34
2018-09-24T05:30:14.273Z,9.30
2018-09-24T05:31:14.254Z,9.22
2018-09-24T05:32:14.252Z,9.32
2018-09-24T05:33:14.215Z,9.30
2018-09-24T05:34:14.198Z,9.27
2018-09-24T05:35:14.178Z,9.29
2018-09-24T05:36:14.155Z,9.29
2018-09-24T05:37:14.136Z,9.34
2018-09-24T05:38:14.113Z,9.33
2018-09-24T05:39:14.095Z,9.27
2018-09-24T05:40:14.074Z,9.26
2018-09-24T05:41:14.092Z,9.27
2018-09-24T05:42:14.037Z,9.27
2018-09-24T05:43:14.022Z,9.27
2018-09-24T05:44:13.998Z,9.29
2018-09-24T05:45:13.990Z,9.24
2018-09-24T05:46:13.961Z,9.30
2018-09-24T05:47:13.940Z,9.26
2018-09-24T05:48:13.918Z,9.24
2018-09-24T05:49:13.901Z,9.27
2018-09-24T05:50:13.886Z,9.29
2018-09-24T05:51:13.862Z,9.33
2018-09-24T05:52:13.850Z,9.29
2018-09-24T05:53:13.823Z,9.34
2018-09-24T05:54:13.821Z,9.44
2018-09-24T05:55:13.789Z,9.44
2018-09-24T05:56:13.772Z,9.45
2018-09-24T05:57:13.753Z,9.44
2018-09-24T05:58:13.732Z,9.59
2018-09-24T05:59:13.713Z,9.57
2018-09-24T06:00:13.690Z,9.55
2018-09-24T06:01:13.672Z,9.63
2018-09-24T06:02:13.658Z,9.55
2018-09-24T06:03:13.636Z,9.65
2018-09-24T06:04:13.619Z,9.57
2018-09-24T06:05:13.597Z,9.67
2018-09-24T06:06:13.590Z,9.65
2018-09-24T06:07:13.559Z,9.66
2018-09-24T06:08:13.543Z,9.65
2018-09-24T06:09:13.532Z,9.60
2018-09-24T06:10:13.501Z,9.73
2018-09-24T06:11:13.481Z,9.63
2018-09-24T06:12:13.463Z,9.70
2018-09-24T06:13:13.441Z,9.78
2018-09-24T06:14:13.425Z,9.84
2018-09-24T06:15:13.416Z,9.84
2018-09-24T06:16:13.388Z,9.90
2018-09-24T06:17:13.370Z,9.88
2018-09-24T06:18:13.347Z,9.99
2018-09-24T06:19:13.329Z,9.96
2018-09-24T06:20:13.317Z,10.01
2018-09-24T06:21:13.288Z,10.06
2018-09-24T06:22:13.276Z,10.08
2018-09-24T06:23:13.256Z,10.10
2018-09-24T06:24:13.233Z,10.08
2018-09-24T06:25:13.218Z,10.12
2018-09-24T06:26:13.197Z,10.27
2018-09-24T06:27:13.175Z,10.45
2018-09-24T06:28:13.210Z,10.52
2018-09-24T06:29:13.139Z,10.78
2018-09-24T06:30:13.128Z,10.79
2018-09-24T06:31:13.103Z,10.76
2018-09-24T06:32:13.087Z,10.75
2018-09-24T06:33:13.064Z,10.64
2018-09-24T06:34:13.091Z,10.62
2018-09-24T06:35:13.031Z,10.61
2018-09-24T06:36:13.009Z,10.61
2018-09-24T06:37:12.992Z,10.65
2018-09-24T06:38:12.974Z,10.60
2018-09-24T06:39:12.959Z,10.70
2018-09-24T06:40:12.938Z,10.78
2018-09-24T06:41:12.939Z,10.78
2018-09-24T06:42:12.902Z,10.87
2018-09-24T06:43:12.892Z,10.98
2018-09-24T06:44:12.866Z,11.30
2018-09-24T06:45:12.851Z,11.69
2018-09-24T06:46:12.830Z,12.15
2018-09-24T06:47:12.815Z,12.63
2018-09-24T06:48:12.799Z,12.91
2018-09-24T06:49:12.780Z,13.13
2018-09-24T06:50:12.766Z,13.51
2018-09-24T06:51:12.751Z,13.61
2018-09-24T06:52:12.736Z,13.85
2018-09-24T06:53:12.724Z,13.88
2018-09-24T06:54:12.708Z,14.19
2018-09-24T06:55:12.695Z,14.48
2018-09-24T06:56:12.682Z,14.73
2018-09-24T06:57:12.673Z,14.71
2018-09-24T06:58:12.668Z,14.86
2018-09-24T06:59:12.648Z,14.86
2018-09-24T07:00:12.638Z,14.85
2018-09-24T07:01:12.622Z,14.85
2018-09-24T07:02:12.613Z,15.14
2018-09-24T07:03:12.607Z,14.93
2018-09-24T07:04:12.596Z,15.05
2018-09-24T07:05:12.582Z,15.22
2018-09-24T07:06:12.570Z,15.15
2018-09-24T07:07:12.564Z,15.38
2018-09-24T07:08:12.558Z,15.45
2018-09-24T07:09:12.545Z,15.41
2018-09-24T07:10:12.539Z,15.58
2018-09-24T07:11:12.579Z,15.77
2018-09-24T07:12:12.524Z,15.47
2018-09-24T07:13:12.511Z,15.51
2018-09-24T07:14:12.504Z,15.63
2018-09-24T07:15:12.498Z,15.77
2018-09-24T07:16:12.493Z,15.91
2018-09-24T07:17:12.487Z,16.06
2018-09-24T07:18:12.480Z,16.29
2018-09-24T07:19:12.478Z,16.32
2018-09-24T07:20:12.466Z,16.43
2018-09-24T07:21:12.463Z,16.65
2018-09-24T07:22:12.461Z,16.83
2018-09-24T07:23:12.454Z,16.37
2018-09-24T07:24:12.447Z,16.73
2018-09-24T07:25:12.442Z,16.90
2018-09-24T07:26:12.443Z,16.82
2018-09-24T07:27:12.443Z,17.19
2018-09-24T07:28:12.469Z,17.41
2018-09-24T07:29:12.429Z,17.71
2018-09-24T07:30:12.421Z,18.42
2018-09-24T07:31:12.420Z,18.81
2018-09-24T07:32:12.416Z,19.13
2018-09-24T07:33:12.430Z,19.34
2018-09-24T07:34:12.414Z,19.12
2018-09-24T07:35:12.413Z,19.12
2018-09-24T07:36:12.406Z,19.17
2018-09-24T07:37:12.404Z,19.32
2018-09-24T07:38:12.402Z,19.89
2018-09-24T07:39:12.400Z,20.41
2018-09-24T07:40:12.404Z,20.70
2018-09-24T07:41:12.396Z,20.75
2018-09-24T07:42:12.396Z,21.26
2018-09-24T07:43:12.447Z,21.48
2018-09-24T07:44:12.396Z,21.94
2018-09-24T07:45:12.394Z,21.53
2018-09-24T07:46:12.392Z,21.94
2018-09-24T07:47:12.393Z,21.16
2018-09-24T07:48:12.396Z,21.55
2018-09-24T07:49:12.409Z,21.78
2018-09-24T07:50:12.392Z,22.25
2018-09-24T07:51:12.394Z,22.58
2018-09-24T07:52:12.396Z,22.55
2018-09-24T07:53:12.391Z,23.06
2018-09-24T07:54:12.394Z,23.51
2018-09-24T07:55:12.409Z,23.61
2018-09-24T07:56:12.394Z,23.84
2018-09-24T07:57:12.393Z,23.98
2018-09-24T07:58:12.402Z,23.92
2018-09-24T07:59:12.393Z,24.31
2018-09-24T08:00:12.393Z,24.47
2018-09-24T08:01:12.397Z,24.93
2018-09-24T08:02:12.400Z,25.19
2018-09-24T08:03:12.397Z,25.14
2018-09-24T08:04:12.402Z,25.21
2018-09-24T08:05:12.405Z,25.26
2018-09-24T08:06:12.404Z,25.49
2018-09-24T08:07:12.461Z,25.71
2018-09-24T08:08:12.404Z,26.03
2018-09-24T08:09:12.411Z,26.12
2018-09-24T08:10:12.410Z,25.83
2018-09-24T08:11:12.413Z,25.63
2018-09-24T08:12:12.425Z,25.66
2018-09-24T08:13:12.476Z,26.01
2018-09-24T08:14:12.425Z,25.64
2018-09-24T08:15:12.423Z,25.98
2018-09-24T08:16:12.422Z,26.00
2018-09-24T08:17:12.426Z,26.10
2018-09-24T08:18:12.428Z,26.23
2018-09-24T08:19:12.428Z,25.93
2018-09-24T08:20:12.434Z,26.01
2018-09-24T08:21:12.573Z,26.31
2018-09-24T08:22:12.438Z,26.45
2018-09-24T08:23:12.441Z,26.49
2018-09-24T08:24:12.442Z,26.31
2018-09-24T08:25:12.444Z,26.10
2018-09-24T08:26:12.445Z,25.56
2018-09-24T08:27:12.451Z,25.48
2018-09-24T08:28:12.447Z,25.77
2018-09-24T08:29:12.453Z,25.73
2018-09-24T08:30:12.471Z,25.71
2018-09-24T08:31:12.459Z,25.88
2018-09-24T08:32:12.465Z,25.92
2018-09-24T08:33:12.463Z,25.36
2018-09-24T08:34:12.469Z,25.68
2018-09-24T08:35:12.470Z,25.92
2018-09-24T08:36:12.477Z,25.70
2018-09-24T08:37:12.473Z,25.71
2018-09-24T08:38:12.533Z,26.07
2018-09-24T08:39:12.477Z,26.33
2018-09-24T08:40:12.480Z,26.19
2018-09-24T08:41:12.487Z,26.16
2018-09-24T08:42:12.484Z,25.88
2018-09-24T08:43:12.499Z,25.71
2018-09-24T08:44:12.537Z,25.63
2018-09-24T08:45:12.495Z,25.51
2018-09-24T08:46:12.492Z,25.66
2018-09-24T08:47:12.497Z,25.70
2018-09-24T08:48:12.497Z,26.27
2018-09-24T08:49:12.502Z,26.33
2018-09-24T08:50:12.501Z,26.31
2018-09-24T08:51:12.502Z,26.52
2018-09-24T08:52:12.517Z,25.90
2018-09-24T08:53:12.554Z,26.19
2018-09-24T08:54:12.507Z,26.04
2018-09-24T08:55:12.508Z,26.38
2018-09-24T08:56:12.524Z,26.78
2018-09-24T08:57:12.516Z,26.57
2018-09-24T08:58:12.520Z,26.57
2018-09-24T08:59:12.511Z,26.70
2018-09-24T09:00:12.515Z,26.27
2018-09-24T09:01:12.518Z,26.26
2018-09-24T09:02:12.524Z,25.92
2018-09-24T09:03:12.520Z,25.46
2018-09-24T09:04:12.519Z,25.19
2018-09-24T09:05:12.522Z,25.04
2018-09-24T09:06:12.518Z,24.78
2018-09-24T09:07:12.522Z,24.81
2018-09-24T09:08:12.529Z,25.03
2018-09-24T09:09:12.528Z,24.96
2018-09-24T09:10:12.523Z,25.30
2018-09-24T09:11:12.521Z,25.49
2018-09-24T09:12:12.521Z,25.48
2018-09-24T09:13:12.524Z,25.55
2018-09-24T09:14:12.518Z,25.46
2018-09-24T09:15:12.515Z,25.23
2018-09-24T09:16:12.545Z,25.56
2018-09-24T09:17:12.512Z,25.16
2018-09-24T09:18:12.512Z,25.00
2018-09-24T09:19:12.510Z,25.11
2018-09-24T09:20:12.511Z,25.09
2018-09-24T09:21:12.510Z,25.33
2018-09-24T09:22:12.506Z,25.78
2018-09-24T09:23:12.506Z,26.16
2018-09-24T09:24:12.500Z,26.04
2018-09-24T09:25:12.502Z,25.43
2018-09-24T09:26:12.499Z,25.21
2018-09-24T09:27:12.498Z,25.23
2018-09-24T09:28:12.490Z,25.43
2018-09-24T09:29:12.491Z,25.45
2018-09-24T09:30:12.493Z,26.07
2018-09-24T09:31:12.483Z,26.41
2018-09-24T09:32:12.481Z,25.98
2018-09-24T09:33:12.480Z,26.36
2018-09-24T09:34:12.481Z,26.33
2018-09-24T09:35:12.561Z,25.68
2018-09-24T09:36:12.466Z,25.00
2018-09-24T09:37:12.464Z,25.30
2018-09-24T09:38:12.461Z,25.77
2018-09-24T09:39:12.458Z,25.23
2018-09-24T09:40:12.462Z,25.06
2018-09-24T09:41:12.564Z,24.63
2018-09-24T09:42:12.446Z,24.44
2018-09-24T09:43:12.441Z,24.19
2018-09-24T09:44:12.454Z,24.51
2018-09-24T09:45:12.436Z,24.53
2018-09-24T09:46:12.431Z,24.34
2018-09-24T09:47:12.424Z,24.06
2018-09-24T09:48:12.417Z,24.13
2018-09-24T09:49:12.413Z,23.86
2018-09-24T09:50:12.406Z,24.43
2018-09-24T09:51:12.399Z,24.66
2018-09-24T09:52:12.395Z,24.38
2018-09-24T09:53:12.391Z,24.47
2018-09-24T09:54:12.384Z,24.53
2018-09-24T09:55:12.381Z,24.01
2018-09-24T09:56:12.371Z,23.85
2018-09-24T09:57:12.369Z,23.21
2018-09-24T09:58:12.359Z,22.46
2018-09-24T09:59:12.410Z,22.77
2018-09-24T10:00:12.351Z,23.44
2018-09-24T10:01:12.352Z,23.89
2018-09-24T10:02:12.334Z,23.45
2018-09-24T10:03:12.334Z,22.80
2018-09-24T10:04:12.323Z,22.91
2018-09-24T10:05:12.318Z,22.93
2018-09-24T10:06:12.305Z,22.76
2018-09-24T10:07:12.304Z,21.75
2018-09-24T10:08:12.292Z,21.41
2018-09-24T10:09:12.285Z,21.16
2018-09-24T10:10:12.279Z,21.04
2018-09-24T10:11:12.341Z,20.68
2018-09-24T10:12:12.265Z,20.88
2018-09-24T10:13:12.251Z,21.28
2018-09-24T10:14:12.248Z,21.74
2018-09-24T10:15:12.242Z,22.12
2018-09-24T10:16:12.233Z,22.62
2018-09-24T10:17:12.219Z,22.62
2018-09-24T10:18:12.216Z,22.78
2018-09-24T10:19:12.205Z,22.37
2018-09-24T10:20:12.206Z,22.30
2018-09-24T10:21:12.192Z,21.85
2018-09-24T10:22:12.189Z,21.23
2018-09-24T10:23:12.179Z,21.04
2018-09-24T10:24:12.166Z,20.82
2018-09-24T10:25:12.154Z,20.86
2018-09-24T10:26:12.148Z,21.01
2018-09-24T10:27:12.139Z,21.19
2018-09-24T10:28:12.128Z,21.13
2018-09-24T10:29:12.122Z,21.41
2018-09-24T10:30:12.111Z,21.51
2018-09-24T10:31:12.102Z,21.60
2018-09-24T10:32:12.093Z,21.47
2018-09-24T10:33:12.086Z,21.14
2018-09-24T10:34:12.078Z,21.32
2018-09-24T10:35:12.078Z,21.47
2018-09-24T10:36:12.071Z,21.56
2018-09-24T10:37:12.049Z,21.55
2018-09-24T10:38:12.048Z,21.78
2018-09-24T10:39:12.034Z,21.63
2018-09-24T10:40:12.026Z,21.25
2018-09-24T10:41:12.018Z,21.11
2018-09-24T10:42:12.023Z,21.01
2018-09-24T10:43:11.999Z,21.30
2018-09-24T10:44:11.986Z,21.34
2018-09-24T10:45:11.978Z,20.73
2018-09-24T10:46:12.115Z,20.48
2018-09-24T10:47:11.963Z,20.14
2018-09-24T10:48:11.959Z,19.92
2018-09-24T10:49:11.942Z,19.87
2018-09-24T10:50:11.933Z,19.78
2018-09-24T10:51:11.928Z,19.41
2018-09-24T10:52:11.925Z,19.08
2018-09-24T10:53:11.907Z,18.93
2018-09-24T10:54:11.894Z,19.04
2018-09-24T10:55:11.893Z,18.97
2018-09-24T10:56:11.876Z,19.08
2018-09-24T10:57:11.874Z,19.16
2018-09-24T10:58:11.854Z,19.20
2018-09-24T10:59:11.844Z,19.30
2018-09-24T11:00:11.834Z,19.38
2018-09-24T11:01:11.825Z,19.37
2018-09-24T11:02:11.812Z,19.47
2018-09-24T11:03:11.815Z,19.34
2018-09-24T11:04:11.796Z,19.32
2018-09-24T11:05:11.782Z,19.54
2018-09-24T11:06:11.769Z,19.70
2018-09-24T11:07:11.851Z,19.68
2018-09-24T11:08:11.749Z,19.54
2018-09-24T11:09:11.743Z,19.49
2018-09-24T11:10:11.754Z,19.45
2018-09-24T11:11:11.713Z,19.53
2018-09-24T11:12:11.701Z,19.49
2018-09-24T11:13:11.692Z,19.31
2018-09-24T11:14:11.679Z,19.68
2018-09-24T11:15:11.677Z,20.19
2018-09-24T11:16:11.869Z,20.05
2018-09-24T11:17:11.809Z,20.34
2018-09-24T11:18:11.657Z,20.65
2018-09-24T11:19:11.623Z,20.97
2018-09-24T11:20:11.632Z,21.14
2018-09-24T11:21:11.614Z,20.97
2018-09-24T11:22:11.607Z,21.19
2018-09-24T11:23:11.787Z,21.41
2018-09-24T11:24:11.571Z,21.38
2018-09-24T11:25:11.561Z,21.20
2018-09-24T11:26:11.549Z,20.97
2018-09-24T11:27:11.539Z,20.61
2018-09-24T11:28:11.535Z,20.88
2018-09-24T11:29:11.515Z,20.88
2018-09-24T11:30:11.510Z,21.08
2018-09-24T11:31:11.494Z,21.48
2018-09-24T11:32:11.482Z,21.40
2018-09-24T11:33:11.474Z,20.97
2018-09-24T11:34:11.473Z,21.14
2018-09-24T11:35:11.453Z,21.13
2018-09-24T11:36:11.448Z,21.03
2018-09-24T11:37:11.429Z,20.90
2018-09-24T11:38:11.420Z,20.67
2018-09-24T11:39:11.410Z,20.63
2018-09-24T11:40:11.396Z,20.52
2018-09-24T11:41:11.387Z,20.39
2018-09-24T11:42:11.374Z,20.34
2018-09-24T11:43:11.364Z,20.26
2018-09-24T11:44:11.354Z,20.53
2018-09-24T11:45:11.344Z,20.17
2018-09-24T11:46:11.333Z,20.17
2018-09-24T11:47:11.455Z,20.56
2018-09-24T11:48:11.311Z,20.73
2018-09-24T11:49:11.301Z,20.92
2018-09-24T11:50:11.295Z,20.75
2018-09-24T11:51:11.282Z,20.58
2018-09-24T11:52:11.267Z,20.52
2018-09-24T11:53:11.261Z,20.23
2018-09-24T11:54:11.245Z,20.33
2018-09-24T11:55:11.237Z,20.19
2018-09-24T11:56:11.282Z,20.56
2018-09-24T11:57:11.219Z,20.64
2018-09-24T11:58:11.203Z,20.64
2018-09-24T11:59:11.194Z,20.71
2018-09-24T12:00:11.183Z,20.77
2018-09-24T12:01:11.168Z,20.79
2018-09-24T12:02:11.246Z,20.93
2018-09-24T12:03:11.152Z,20.77
2018-09-24T12:04:11.135Z,20.77
2018-09-24T12:05:11.127Z,20.90
2018-09-24T12:06:11.114Z,21.01
2018-09-24T12:07:11.122Z,20.67
2018-09-24T12:08:11.094Z,20.68
2018-09-24T12:09:11.082Z,20.58
2018-09-24T12:10:11.111Z,20.18
2018-09-24T12:11:11.063Z,19.93
2018-09-24T12:12:11.052Z,19.45
2018-09-24T12:13:11.048Z,19.38
2018-09-24T12:14:11.027Z,19.12
2018-09-24T12:15:11.018Z,18.85
2018-09-24T12:16:11.012Z,18.86
2018-09-24T12:17:10.992Z,18.86
2018-09-24T12:18:10.992Z,18.86
2018-09-24T12:19:10.974Z,18.66
2018-09-24T12:20:10.956Z,18.67
2018-09-24T12:21:10.944Z,18.71
2018-09-24T12:22:10.931Z,18.60
2018-09-24T12:23:10.923Z,18.21
2018-09-24T12:24:10.921Z,17.90
2018-09-24T12:25:10.900Z,17.63
2018-09-24T12:26:10.892Z,17.50
2018-09-24T12:27:10.873Z,17.24
2018-09-24T12:28:10.863Z,17.06
2018-09-24T12:29:10.850Z,16.99
2018-09-24T12:30:10.836Z,16.32
2018-09-24T12:31:10.825Z,16.25
2018-09-24T12:32:10.810Z,16.40
2018-09-24T12:33:10.800Z,16.49
2018-09-24T12:34:10.792Z,16.54
2018-09-24T12:35:10.772Z,16.72
2018-09-24T12:36:10.761Z,17.34
2018-09-24T12:37:10.748Z,17.59
2018-09-24T12:38:10.736Z,18.06
2018-09-24T12:39:10.724Z,18.31
2018-09-24T12:40:10.711Z,18.41
2018-09-24T12:41:10.697Z,18.45
2018-09-24T12:42:10.689Z,18.79
2018-09-24T12:43:10.674Z,18.96
2018-09-24T12:44:10.667Z,19.34
2018-09-24T12:45:10.647Z,19.50
2018-09-24T12:46:10.636Z,19.70
2018-09-24T12:47:10.629Z,19.57
2018-09-24T12:48:10.640Z,19.63
2018-09-24T12:49:10.600Z,19.37
2018-09-24T12:50:10.591Z,19.27
2018-09-24T12:51:10.585Z,19.16
2018-09-24T12:52:10.568Z,18.94
2018-09-24T12:53:10.551Z,18.85
2018-09-24T12:54:10.545Z,18.74
2018-09-24T12:55:10.531Z,18.58
2018-09-24T12:56:10.516Z,18.41
2018-09-24T12:57:10.506Z,18.34
2018-09-24T12:58:10.490Z,18.15
2018-09-24T12:59:10.481Z,17.94